< Typhoon 202208 2022 Season Typhoon 202210 >
Typhoon 202209 (MA-ON)
General InformationTrack Information on Google MapsDetailed Wind InformationForecast History on Google MapsAccess Analytics MapList of All Images || NewsDisaster Info.JMA Disaster Info. XMLWeblogTrackbackTyphoon FrontTwiphoonTyphoon Now!Typhoon ImaginationResourceGoogle EarthGE AnimationAtom FeedGeoJSON
Detalied Best Track (Time Zone = UTC)
Year Month Day Hour Lat. Long. Pressure (hPa) Wind (kt) Class Image Chart
2022 8 21 00 17.6 127.8 1004 0 2 Image Chart
2022 8 21 06 17.2 127.2 1000 0 2 Image Chart
2022 8 21 12 17.0 126.4 1000 0 2 Image Chart
2022 8 21 18 16.4 125.3 998 35 3 Image Chart
2022 8 22 00 16.3 124.4 996 40 3 Image Chart
2022 8 22 06 16.2 123.7 994 40 3 Image Chart
2022 8 22 12 16.1 123.4 992 45 3 Image Chart
2022 8 22 18 16.3 123.3 990 50 4 Image Chart
2022 8 23 00 17.1 122.7 990 50 4 Image Chart
2022 8 23 06 17.9 121.5 990 50 4 Image Chart
2022 8 23 12 18.5 120.3 990 50 4 Image Chart
2022 8 23 18 19.0 118.8 985 55 4 Image Chart
2022 8 24 00 19.0 117.2 985 55 4 Image Chart
2022 8 24 06 19.4 116.0 985 55 4 Image Chart
2022 8 24 12 19.9 114.8 985 55 4 Image Chart
2022 8 24 18 20.7 113.3 985 55 4 Image Chart
2022 8 25 00 20.9 111.8 985 55 4 Image Chart
2022 8 25 06 21.6 109.7 990 50 4 Image Chart
2022 8 25 12 21.4 108.3 992 45 3 Image Chart
2022 8 25 18 21.4 106.4 996 35 3 Image Chart
2022 8 26 00 21.4 104.4 1000 0 2 Image Chart
Japan Meteorological Agency Best Track Data | Correction Date : 2022-11-16
< Typhoon 202208 2022 Season Typhoon 202210 >

Help